Time;durP1;ratioP1;P1;durP2;ratioP2;P2;SDS_P1;SDS_P2;PMS_P1;PMS_P2;Temp;Humidity;BMP_temperature;BMP_pressure;BME280_temperature;BME280_humidity;BME280_pressure;Samples;Min_cycle;Max_cycle;Signal;HPM_P1;HPM_P2
2022/12/25 00:01:31;;;;;;;9.68;6.40;;;8.40;99.90;;;;;;5085623;28;20566;-71
2022/12/25 00:03:58;;;;;;;10.70;7.25;;;8.40;99.90;;;;;;5086769;28;20429;-72
2022/12/25 00:06:25;;;;;;;12.55;7.10;;;8.50;99.90;;;;;;5097478;28;21224;-71
2022/12/25 00:08:51;;;;;;;10.00;6.72;;;8.50;99.90;;;;;;5106834;28;20430;-71
2022/12/25 00:11:19;;;;;;;12.18;7.30;;;8.50;99.90;;;;;;5097755;28;20438;-71
2022/12/25 00:13:48;;;;;;;10.10;5.90;;;8.50;99.90;;;;;;5095655;28;20881;-71
2022/12/25 00:16:17;;;;;;;9.68;6.90;;;8.50;99.90;;;;;;5093451;28;20425;-71
2022/12/25 00:18:44;;;;;;;10.90;6.75;;;8.50;99.90;;;;;;5085575;28;20422;-71
2022/12/25 00:21:11;;;;;;;10.48;6.50;;;8.60;99.90;;;;;;5085566;28;21088;-71
2022/12/25 00:23:38;;;;;;;9.77;7.10;;;8.60;99.90;;;;;;5084958;28;20414;-71
2022/12/25 00:26:06;;;;;;;12.00;6.90;;;8.50;99.90;;;;;;5087087;28;20986;-70
2022/12/25 00:28:33;;;;;;;11.20;6.90;;;8.50;99.90;;;;;;5096611;28;20431;-71
2022/12/25 00:31:04;;;;;;;8.85;6.38;;;8.60;99.90;;;;;;5097384;28;20442;-71
2022/12/25 00:33:31;;;;;;;10.57;6.50;;;8.60;99.90;;;;;;5106378;28;20412;-71
2022/12/25 00:35:59;;;;;;;8.40;6.45;;;8.60;99.90;;;;;;5106122;28;20423;-71
2022/12/25 00:38:26;;;;;;;11.90;6.47;;;8.60;99.90;;;;;;5109656;28;20435;-72
2022/12/25 00:40:53;;;;;;;9.48;6.40;;;8.70;99.90;;;;;;5119137;28;20448;-71
2022/12/25 00:43:20;;;;;;;12.67;7.93;;;8.60;99.90;;;;;;5101236;28;20947;-71
2022/12/25 00:45:54;;;;;;;9.90;6.20;;;8.60;99.90;;;;;;5105953;28;20423;-71
2022/12/25 00:48:22;;;;;;;10.55;5.90;;;8.60;99.90;;;;;;5106211;28;20444;-72
2022/12/25 00:50:53;;;;;;;11.70;6.20;;;8.60;99.90;;;;;;5106379;28;20400;-72
2022/12/25 00:53:20;;;;;;;11.25;7.03;;;8.60;99.90;;;;;;5115114;28;20401;-72
2022/12/25 00:55:51;;;;;;;11.48;6.40;;;8.60;99.90;;;;;;5118851;28;20422;-71
2022/12/25 00:58:18;;;;;;;9.02;5.70;;;8.60;99.90;;;;;;5121510;28;20426;-71
2022/12/25 01:00:46;;;;;;;9.32;5.78;;;8.60;99.90;;;;;;5099135;28;20434;-71
2022/12/25 01:03:13;;;;;;;9.25;6.28;;;8.60;99.90;;;;;;5089084;28;20432;-71
2022/12/25 01:05:41;;;;;;;10.63;5.87;;;8.60;99.90;;;;;;5088996;28;21175;-71
2022/12/25 01:08:08;;;;;;;10.40;6.00;;;8.70;99.90;;;;;;5092308;28;20414;-71
2022/12/25 01:10:34;;;;;;;7.27;5.40;;;8.70;99.90;;;;;;5089688;28;20429;-71
2022/12/25 01:13:00;;;;;;;10.43;5.80;;;8.70;99.90;;;;;;5099355;28;20409;-72
2022/12/25 01:15:27;;;;;;;8.70;5.40;;;8.70;99.90;;;;;;5109889;28;20427;-71
2022/12/25 01:17:54;;;;;;;9.60;5.90;;;8.70;99.90;;;;;;5109442;28;20456;-71
2022/12/25 01:20:21;;;;;;;8.80;5.10;;;8.70;99.90;;;;;;5105363;28;20433;-72
2022/12/25 01:22:49;;;;;;;11.05;5.65;;;8.60;99.90;;;;;;5098002;28;20780;-71
2022/12/25 01:25:16;;;;;;;8.57;5.10;;;8.60;99.90;;;;;;5090070;28;20477;-71
2022/12/25 01:27:42;;;;;;;10.88;5.30;;;8.60;99.90;;;;;;5096833;28;20435;-71
2022/12/25 01:30:10;;;;;;;8.25;5.50;;;8.70;99.90;;;;;;5092431;28;20500;-71
2022/12/25 01:32:37;;;;;;;9.10;5.80;;;8.60;99.90;;;;;;5088539;28;20410;-71
2022/12/25 01:35:04;;;;;;;9.80;5.43;;;8.60;99.90;;;;;;5089368;28;20933;-71
2022/12/25 01:37:31;;;;;;;7.07;5.63;;;8.70;99.90;;;;;;5089014;28;20748;-71
2022/12/25 01:39:59;;;;;;;8.57;5.20;;;8.70;99.90;;;;;;5088596;28;20431;-72
2022/12/25 01:42:26;;;;;;;9.15;5.60;;;8.70;99.90;;;;;;5094802;28;20535;-73
2022/12/25 01:45:37;;;;;;;8.38;5.10;;;8.70;99.90;;;;;;5112795;28;20490;-72
2022/12/25 01:48:08;;;;;;;10.00;5.95;;;8.70;99.90;;;;;;5102679;28;20402;-71
2022/12/25 01:50:37;;;;;;;8.10;5.05;;;8.80;99.90;;;;;;5100471;28;20938;-71
2022/12/25 01:53:04;;;;;;;8.55;5.50;;;8.80;99.90;;;;;;5093483;28;20440;-71
2022/12/25 01:55:33;;;;;;;13.13;6.57;;;8.80;99.90;;;;;;5090865;28;20433;-71
2022/12/25 01:58:00;;;;;;;6.97;5.60;;;8.90;99.90;;;;;;5101837;28;20425;-71
2022/12/25 02:00:27;;;;;;;8.65;4.95;;;8.90;99.90;;;;;;5101477;28;20425;-71
2022/12/25 02:02:54;;;;;;;8.40;5.50;;;8.90;99.90;;;;;;5090233;28;20486;-72
2022/12/25 02:05:24;;;;;;;11.77;6.10;;;8.90;99.90;;;;;;5089005;28;20463;-71
2022/12/25 02:07:52;;;;;;;9.50;5.00;;;8.90;99.90;;;;;;5092299;28;20410;-71
2022/12/25 02:10:19;;;;;;;8.07;5.13;;;8.90;99.90;;;;;;5091363;28;20462;-70
2022/12/25 02:12:48;;;;;;;8.77;4.80;;;8.90;99.90;;;;;;5108707;28;20412;-69
2022/12/25 02:15:17;;;;;;;8.90;5.18;;;9.00;99.90;;;;;;5109470;28;20428;-70
2022/12/25 02:17:53;;;;;;;8.68;4.57;;;9.00;99.90;;;;;;5100424;28;20419;-69
2022/12/25 02:20:35;;;;;;;10.93;4.82;;;9.10;99.90;;;;;;5109080;28;20422;-70
2022/12/25 02:23:18;;;;;;;9.63;4.90;;;9.10;99.90;;;;;;5087223;28;20430;-70
2022/12/25 02:25:59;;;;;;;8.32;4.50;;;9.10;99.90;;;;;;5087310;28;20430;-70
2022/12/25 02:28:31;;;;;;;11.88;5.30;;;9.10;99.90;;;;;;5078836;28;20405;-70
2022/12/25 02:31:07;;;;;;;7.85;4.43;;;9.10;99.90;;;;;;5109059;28;20902;-70
2022/12/25 02:36:32;;;;;;;9.15;4.70;;;9.10;99.90;;;;;;5107555;28;20929;-70
2022/12/25 02:41:49;;;;;;;7.45;4.35;;;9.10;99.90;;;;;;5102194;28;20467;-70
2022/12/25 03:06:55;;;;;;;7.60;4.22;;;9.20;99.90;;;;;;5092653;22;21438;-68
2022/12/25 03:12:17;;;;;;;7.30;4.90;;;9.20;99.90;;;;;;5079851;28;20941;-69
2022/12/25 03:17:45;;;;;;;8.25;4.13;;;9.30;99.90;;;;;;4994147;28;20433;-69
2022/12/25 03:28:25;;;;;;;6.90;4.05;;;9.30;99.90;;;;;;5081386;28;20949;-68
2022/12/25 03:31:12;;;;;;;7.63;4.70;;;9.30;99.90;;;;;;5088393;28;20893;-68
2022/12/25 03:37:06;;;;;;;8.93;4.10;;;9.30;99.90;;;;;;5087071;28;20401;-68
2022/12/25 04:37:52;;;;;;;7.90;3.70;;;9.40;99.90;;;;;;5087881;28;20397;-67
2022/12/25 04:40:20;;;;;;;8.70;4.00;;;9.40;99.90;;;;;;5086663;28;20425;-67
2022/12/25 04:42:49;;;;;;;9.02;4.00;;;9.40;99.90;;;;;;5091682;28;20784;-67
2022/12/25 04:45:15;;;;;;;7.90;3.80;;;9.40;99.90;;;;;;5092237;28;20974;-67
2022/12/25 04:47:42;;;;;;;7.10;4.00;;;9.40;99.90;;;;;;5092521;28;20437;-68
2022/12/25 04:50:09;;;;;;;7.03;3.70;;;9.40;99.90;;;;;;5092141;28;20896;-67
2022/12/25 04:52:36;;;;;;;5.40;3.70;;;9.40;99.90;;;;;;5091539;28;20872;-67
2022/12/25 04:55:04;;;;;;;9.00;4.13;;;9.40;99.90;;;;;;5089749;28;21070;-67
2022/12/25 04:57:32;;;;;;;6.30;4.00;;;9.40;99.90;;;;;;5091922;28;20426;-67
2022/12/25 04:59:59;;;;;;;7.20;4.07;;;9.40;99.90;;;;;;5091888;28;20834;-69
2022/12/25 05:02:26;;;;;;;6.00;4.00;;;9.40;99.90;;;;;;5091411;28;20436;-68
2022/12/25 05:04:52;;;;;;;10.23;4.40;;;9.40;99.90;;;;;;5091975;28;20413;-67
2022/12/25 05:07:19;;;;;;;8.50;4.20;;;9.30;99.90;;;;;;5091835;28;20416;-68
2022/12/25 05:09:46;;;;;;;7.93;4.80;;;9.20;99.90;;;;;;5090850;28;20453;-68
2022/12/25 05:12:13;;;;;;;7.05;4.05;;;9.20;99.90;;;;;;5082742;28;20919;-69
2022/12/25 05:14:41;;;;;;;8.52;4.00;;;9.20;99.90;;;;;;5091515;28;20417;-67
2022/12/25 05:17:07;;;;;;;8.67;4.20;;;9.20;99.90;;;;;;5091187;28;20421;-67
2022/12/25 05:19:34;;;;;;;8.02;3.90;;;9.20;99.90;;;;;;5091035;28;20426;-68
2022/12/25 05:22:01;;;;;;;9.38;4.18;;;9.20;99.90;;;;;;5091038;28;20410;-67
2022/12/25 05:24:28;;;;;;;8.48;4.13;;;9.10;99.90;;;;;;5090253;28;20433;-68
2022/12/25 05:26:55;;;;;;;6.93;3.97;;;9.20;99.90;;;;;;5092945;28;21017;-68
2022/12/25 05:29:21;;;;;;;7.30;3.97;;;9.20;99.90;;;;;;5091143;28;20420;-70
2022/12/25 05:31:49;;;;;;;10.48;3.80;;;9.10;99.90;;;;;;5090307;28;20436;-68
2022/12/25 05:34:16;;;;;;;8.73;4.00;;;9.10;99.90;;;;;;5090304;28;20781;-69
2022/12/25 05:36:43;;;;;;;7.63;3.90;;;9.20;99.90;;;;;;5090799;28;20585;-68
2022/12/25 05:39:10;;;;;;;7.90;4.00;;;9.20;99.90;;;;;;5088271;28;20533;-68
2022/12/25 05:41:36;;;;;;;7.55;3.70;;;9.20;99.90;;;;;;5089805;28;20426;-68
2022/12/25 05:44:03;;;;;;;8.05;4.22;;;9.20;99.90;;;;;;5089990;28;20417;-68
2022/12/25 05:46:30;;;;;;;7.75;3.80;;;9.20;99.90;;;;;;5090333;28;20417;-68
2022/12/25 05:48:58;;;;;;;7.88;3.80;;;9.30;99.90;;;;;;5089662;28;20795;-67
2022/12/25 05:51:25;;;;;;;5.40;2.97;;;9.30;99.90;;;;;;5089839;28;20406;-68
2022/12/25 05:53:52;;;;;;;6.50;3.83;;;9.40;99.90;;;;;;5088511;28;20429;-69
2022/12/25 05:56:18;;;;;;;6.55;4.10;;;9.40;99.90;;;;;;5090546;28;20496;-68
2022/12/25 05:58:45;;;;;;;6.23;3.33;;;9.50;99.90;;;;;;5090645;28;20417;-68
2022/12/25 06:01:14;;;;;;;8.32;3.58;;;9.40;99.90;;;;;;5090420;28;20402;-69
2022/12/25 06:03:40;;;;;;;8.45;3.60;;;9.50;99.90;;;;;;5090099;28;20409;-67
2022/12/25 06:06:09;;;;;;;6.15;3.10;;;9.50;99.90;;;;;;5090169;28;20414;-67
2022/12/25 06:08:35;;;;;;;6.13;3.20;;;9.50;99.90;;;;;;5085513;28;20464;-67
2022/12/25 06:11:03;;;;;;;7.07;3.42;;;9.50;99.90;;;;;;5086982;28;20426;-68
2022/12/25 06:13:30;;;;;;;6.75;3.20;;;9.50;99.90;;;;;;5085551;28;20514;-69
2022/12/25 06:15:57;;;;;;;9.20;3.47;;;9.50;99.90;;;;;;5082290;28;20429;-69
2022/12/25 06:18:24;;;;;;;8.73;3.40;;;9.50;99.90;;;;;;5089177;28;20496;-67
2022/12/25 06:20:51;;;;;;;6.40;2.88;;;9.50;99.90;;;;;;5088996;28;20432;-67
2022/12/25 06:23:19;;;;;;;8.73;3.60;;;9.50;99.90;;;;;;5087639;28;20436;-67
2022/12/25 06:25:46;;;;;;;9.18;3.60;;;9.50;99.90;;;;;;5088438;28;20430;-67
2022/12/25 06:28:12;;;;;;;7.88;3.00;;;9.50;99.90;;;;;;5081404;28;20421;-69
2022/12/25 06:30:39;;;;;;;5.22;3.10;;;9.50;99.90;;;;;;5097040;28;20408;-67
2022/12/25 06:33:06;;;;;;;5.22;3.03;;;9.50;99.90;;;;;;5088779;28;20444;-67
2022/12/25 06:35:33;;;;;;;5.28;3.08;;;9.50;99.90;;;;;;5089195;28;20410;-67
2022/12/25 06:37:59;;;;;;;7.30;3.20;;;9.50;99.90;;;;;;5088386;28;20437;-67
2022/12/25 06:40:27;;;;;;;6.50;3.10;;;9.50;99.90;;;;;;5087987;28;20476;-67
2022/12/25 06:42:54;;;;;;;8.40;3.30;;;9.50;99.90;;;;;;5088776;28;20436;-69
2022/12/25 06:45:21;;;;;;;6.28;3.20;;;9.50;99.90;;;;;;5089596;28;20507;-67
2022/12/25 06:47:48;;;;;;;5.35;3.00;;;9.40;99.90;;;;;;5089474;28;20414;-69
2022/12/25 06:50:14;;;;;;;8.15;3.40;;;9.40;99.90;;;;;;5086965;28;20425;-69
2022/12/25 06:52:41;;;;;;;6.90;3.53;;;9.40;99.90;;;;;;5089132;28;20418;-68
2022/12/25 06:55:09;;;;;;;6.78;2.90;;;9.40;99.90;;;;;;5089246;28;20433;-67
2022/12/25 06:57:37;;;;;;;7.72;3.30;;;9.40;99.90;;;;;;5090443;28;20413;-67
2022/12/25 07:00:05;;;;;;;7.18;3.33;;;9.40;99.90;;;;;;5090133;28;20418;-67
2022/12/25 07:02:33;;;;;;;10.52;4.30;;;9.50;99.90;;;;;;5089347;28;20424;-67
2022/12/25 07:05:00;;;;;;;6.85;3.20;;;9.50;99.90;;;;;;5090256;28;20452;-67
2022/12/25 07:07:27;;;;;;;7.82;3.60;;;9.50;99.90;;;;;;5084725;28;20434;-69
2022/12/25 07:09:53;;;;;;;5.55;3.13;;;9.50;99.90;;;;;;5088324;28;20797;-69
2022/12/25 07:12:23;;;;;;;6.30;3.30;;;9.50;99.90;;;;;;5088556;28;20463;-69
2022/12/25 07:14:54;;;;;;;6.95;3.30;;;9.50;99.90;;;;;;5088869;28;20414;-69
2022/12/25 07:17:22;;;;;;;5.70;3.15;;;9.40;99.90;;;;;;5089142;28;20421;-68
2022/12/25 07:19:49;;;;;;;6.33;3.60;;;9.40;99.90;;;;;;5088914;28;20564;-69
2022/12/25 07:22:17;;;;;;;6.40;3.03;;;9.40;99.90;;;;;;5087575;28;20422;-66
2022/12/25 07:24:44;;;;;;;6.43;3.50;;;9.30;99.90;;;;;;5088054;28;20422;-69
2022/12/25 07:27:10;;;;;;;8.50;3.63;;;9.30;99.90;;;;;;5088783;28;20413;-68
2022/12/25 07:29:37;;;;;;;6.75;3.50;;;9.30;99.90;;;;;;5088943;28;21067;-69
2022/12/25 07:32:06;;;;;;;6.47;3.63;;;9.40;99.90;;;;;;5088267;28;20892;-69
2022/12/25 07:34:33;;;;;;;8.73;3.80;;;9.40;99.90;;;;;;5083985;28;20770;-69
2022/12/25 07:37:00;;;;;;;6.72;4.10;;;9.40;99.90;;;;;;5082158;28;20436;-69
2022/12/25 07:39:26;;;;;;;6.18;4.30;;;9.40;99.90;;;;;;5086074;28;20434;-67
2022/12/25 07:41:53;;;;;;;6.20;3.83;;;9.40;99.90;;;;;;5088183;28;20421;-67
2022/12/25 07:44:20;;;;;;;5.53;4.10;;;9.40;99.90;;;;;;5088304;28;20411;-67
2022/12/25 07:46:47;;;;;;;8.40;4.60;;;9.40;99.90;;;;;;5088262;28;20424;-67
2022/12/25 07:49:15;;;;;;;6.60;4.00;;;9.40;99.90;;;;;;5088535;28;20494;-67
2022/12/25 07:51:42;;;;;;;5.97;3.90;;;9.40;99.90;;;;;;5087858;28;20421;-69
2022/12/25 07:54:08;;;;;;;8.65;4.10;;;9.40;99.90;;;;;;5085950;28;20942;-67
2022/12/25 07:56:35;;;;;;;6.63;4.10;;;9.50;99.90;;;;;;5087895;28;20418;-67
2022/12/25 07:59:02;;;;;;;8.20;4.57;;;9.40;99.90;;;;;;5088018;28;20414;-67
2022/12/25 08:01:29;;;;;;;6.70;4.60;;;9.50;99.90;;;;;;5088316;28;20437;-69
2022/12/25 08:03:58;;;;;;;6.18;4.40;;;9.50;99.90;;;;;;5087304;28;20941;-67
2022/12/25 08:06:29;;;;;;;7.40;4.80;;;9.50;99.90;;;;;;5087528;28;20417;-67
2022/12/25 08:08:56;;;;;;;6.43;4.40;;;9.50;99.90;;;;;;5085506;28;20429;-68
2022/12/25 08:11:23;;;;;;;7.15;4.43;;;9.50;99.90;;;;;;5087606;28;20421;-67
2022/12/25 08:13:50;;;;;;;5.78;4.80;;;9.50;99.90;;;;;;5086979;28;20788;-67
2022/12/25 08:16:17;;;;;;;6.13;4.40;;;9.50;99.90;;;;;;5087429;28;20473;-68
2022/12/25 08:18:43;;;;;;;7.17;4.60;;;9.50;99.90;;;;;;5086116;28;20441;-68
2022/12/25 08:21:12;;;;;;;9.55;5.00;;;9.50;99.90;;;;;;5087387;28;20422;-68
2022/12/25 08:23:42;;;;;;;7.90;5.10;;;9.50;99.90;;;;;;5083335;28;20443;-67
2022/12/25 08:26:12;;;;;;;8.52;5.70;;;9.50;99.90;;;;;;5083356;28;20414;-69
2022/12/25 08:28:39;;;;;;;6.00;5.40;;;9.40;99.90;;;;;;5088247;28;20418;-69
2022/12/25 08:31:08;;;;;;;6.68;5.40;;;9.40;99.90;;;;;;5094511;28;20402;-70
2022/12/25 08:33:36;;;;;;;5.40;4.70;;;9.40;99.90;;;;;;5080718;28;20421;-67
2022/12/25 08:36:04;;;;;;;9.90;5.32;;;9.30;99.90;;;;;;5087436;28;20776;-69
2022/12/25 08:38:30;;;;;;;5.88;5.28;;;9.40;99.90;;;;;;5085671;28;20437;-69
2022/12/25 08:40:59;;;;;;;5.60;5.00;;;9.30;99.90;;;;;;5087421;28;20447;-68
2022/12/25 08:43:25;;;;;;;7.18;5.88;;;9.30;99.90;;;;;;5086905;28;20413;-68
2022/12/25 08:45:52;;;;;;;8.50;5.35;;;9.30;99.90;;;;;;5087450;28;20516;-68
2022/12/25 08:48:19;;;;;;;6.05;5.30;;;9.30;99.90;;;;;;5086406;28;20425;-69
2022/12/25 08:50:46;;;;;;;8.30;6.10;;;9.30;99.90;;;;;;5087156;28;20886;-70
2022/12/25 08:53:14;;;;;;;5.78;4.82;;;9.40;99.90;;;;;;5085945;28;20433;-68
2022/12/25 08:55:40;;;;;;;6.95;4.90;;;9.40;99.90;;;;;;5082702;28;20432;-68
2022/12/25 08:58:09;;;;;;;7.28;4.55;;;9.40;99.90;;;;;;5087324;28;21096;-69
2022/12/25 09:00:36;;;;;;;6.20;4.70;;;9.40;99.90;;;;;;5097120;28;20932;-69
2022/12/25 09:03:04;;;;;;;7.05;4.88;;;9.40;99.90;;;;;;5092783;28;20417;-70
2022/12/25 09:05:30;;;;;;;6.78;4.85;;;9.40;99.90;;;;;;5084871;28;20530;-69
2022/12/25 09:07:57;;;;;;;6.50;4.70;;;9.40;99.90;;;;;;5086416;28;20784;-68
2022/12/25 09:10:24;;;;;;;7.43;4.38;;;9.50;99.90;;;;;;5086736;28;20428;-68
2022/12/25 09:12:51;;;;;;;7.70;4.90;;;9.50;99.90;;;;;;5089569;28;20413;-68
2022/12/25 09:15:19;;;;;;;6.50;4.50;;;9.50;99.90;;;;;;5088220;28;20421;-67
2022/12/25 09:17:46;;;;;;;7.88;4.55;;;9.50;99.90;;;;;;5082712;28;20436;-69
2022/12/25 09:20:13;;;;;;;7.45;4.60;;;9.50;99.90;;;;;;5079363;28;20803;-69
2022/12/25 09:22:39;;;;;;;6.72;4.80;;;9.50;99.90;;;;;;5087031;28;20414;-70
2022/12/25 09:25:06;;;;;;;6.35;4.68;;;9.50;99.90;;;;;;5085760;28;20436;-70
2022/12/25 09:27:33;;;;;;;6.65;4.82;;;9.50;99.90;;;;;;5089012;28;20421;-69
2022/12/25 09:30:00;;;;;;;7.63;5.10;;;9.50;99.90;;;;;;5093294;28;20894;-70
2022/12/25 09:32:28;;;;;;;7.40;4.78;;;9.50;99.90;;;;;;5090226;28;20431;-69
2022/12/25 09:34:55;;;;;;;7.47;4.78;;;9.40;99.90;;;;;;5087672;28;20425;-69
2022/12/25 09:37:21;;;;;;;7.30;4.60;;;9.40;99.90;;;;;;5090584;28;20445;-69
2022/12/25 09:39:48;;;;;;;8.10;5.75;;;9.40;99.90;;;;;;5086388;28;20425;-69
2022/12/25 09:42:19;;;;;;;8.27;5.10;;;9.40;99.90;;;;;;5089984;28;20799;-70
2022/12/25 09:44:49;;;;;;;7.67;5.10;;;9.40;99.90;;;;;;5090651;28;20418;-69
2022/12/25 09:47:20;;;;;;;9.30;5.47;;;9.30;99.90;;;;;;5086133;28;20433;-70
2022/12/25 09:49:53;;;;;;;8.35;5.68;;;9.30;99.90;;;;;;5089664;28;20406;-70
2022/12/25 09:52:25;;;;;;;8.32;5.57;;;9.30;99.90;;;;;;5090071;28;20410;-70
2022/12/25 09:54:57;;;;;;;10.85;5.53;;;9.30;99.90;;;;;;5088317;28;20437;-70
2022/12/25 09:57:25;;;;;;;10.43;5.80;;;9.30;99.90;;;;;;5090292;28;20892;-70
2022/12/25 09:59:54;;;;;;;7.80;5.30;;;9.30;99.90;;;;;;5092369;28;20465;-70
2022/12/25 10:02:58;;;;;;;10.18;5.50;;;9.40;99.90;;;;;;5088764;28;20434;-70
2022/12/25 10:05:43;;;;;;;8.73;5.90;;;9.30;99.90;;;;;;5085016;28;20433;-70
2022/12/25 10:08:19;;;;;;;11.02;6.00;;;9.30;99.90;;;;;;5091417;28;20903;-70
2022/12/25 10:10:52;;;;;;;10.70;5.90;;;9.30;99.90;;;;;;5089409;28;20504;-69
2022/12/25 10:13:39;;;;;;;14.20;6.47;;;9.30;99.90;;;;;;5081127;28;20439;-70
2022/12/25 10:16:18;;;;;;;9.93;6.70;;;9.30;99.90;;;;;;5089235;28;20422;-68
2022/12/25 10:18:59;;;;;;;7.60;5.80;;;9.30;99.90;;;;;;5089470;28;20445;-69
2022/12/25 10:21:28;;;;;;;8.80;6.00;;;9.30;99.90;;;;;;5083174;28;20446;-69
2022/12/25 10:24:03;;;;;;;8.68;6.15;;;9.30;99.90;;;;;;5089194;28;20484;-69
2022/12/25 10:26:32;;;;;;;8.98;6.20;;;9.30;99.90;;;;;;5087866;28;20434;-69
2022/12/25 10:29:03;;;;;;;9.25;6.53;;;9.30;99.90;;;;;;5087161;28;20426;-69
2022/12/25 10:31:35;;;;;;;8.80;6.30;;;9.30;99.90;;;;;;5091231;28;20780;-68
2022/12/25 10:34:04;;;;;;;9.85;6.97;;;9.40;99.90;;;;;;5086722;28;20433;-68
2022/12/25 10:36:33;;;;;;;9.27;6.77;;;9.30;99.90;;;;;;5089469;28;20418;-69
2022/12/25 10:39:00;;;;;;;9.43;6.47;;;9.30;99.90;;;;;;5087586;28;20417;-69
2022/12/25 10:41:37;;;;;;;9.57;6.95;;;9.30;99.90;;;;;;5087738;28;20429;-68
2022/12/25 10:44:13;;;;;;;9.85;7.10;;;9.30;99.90;;;;;;5088928;28;20414;-69
2022/12/25 10:49:10;;;;;;;9.70;6.50;;;9.40;99.90;;;;;;5070979;22;20431;-73
2022/12/25 10:51:39;;;;;;;8.50;6.70;;;9.30;99.90;;;;;;5063630;28;20722;-72
2022/12/25 10:54:20;;;;;;;9.65;6.65;;;9.30;99.90;;;;;;5056877;28;20418;-73
2022/12/25 10:56:53;;;;;;;9.55;6.50;;;9.30;99.90;;;;;;5065043;28;20427;-74
2022/12/25 10:59:20;;;;;;;10.38;6.82;;;9.40;99.90;;;;;;5048220;28;20441;-73
2022/12/25 11:01:47;;;;;;;9.35;6.60;;;9.40;99.90;;;;;;5066038;28;20527;-74
2022/12/25 11:04:19;;;;;;;8.73;6.60;;;9.30;99.90;;;;;;5065298;28;20491;-74
2022/12/25 11:06:58;;;;;;;10.02;7.30;;;9.40;99.90;;;;;;5063785;28;20537;-72
2022/12/25 11:09:25;;;;;;;11.07;7.40;;;9.30;99.90;;;;;;5054379;28;20435;-74
2022/12/25 11:11:52;;;;;;;11.23;7.33;;;9.30;99.90;;;;;;5057169;28;20424;-73
2022/12/25 11:14:21;;;;;;;11.20;7.55;;;9.30;99.90;;;;;;5064115;28;20495;-73
2022/12/25 11:16:49;;;;;;;11.60;7.15;;;9.30;99.90;;;;;;5065504;28;20445;-73
2022/12/25 11:19:33;;;;;;;11.55;8.13;;;9.30;99.90;;;;;;5064943;28;21034;-73
2022/12/25 11:22:03;;;;;;;9.13;6.90;;;9.40;99.90;;;;;;5065218;28;20441;-73
2022/12/25 11:24:32;;;;;;;10.03;7.60;;;9.40;99.90;;;;;;5063178;28;20925;-73
2022/12/25 11:27:01;;;;;;;8.93;7.50;;;9.40;99.90;;;;;;5060564;28;20443;-72
2022/12/25 11:29:37;;;;;;;9.13;7.38;;;9.40;99.90;;;;;;5065524;28;20736;-73
2022/12/25 11:32:10;;;;;;;8.32;6.60;;;9.50;99.90;;;;;;5065983;28;20723;-72
2022/12/25 11:34:43;;;;;;;7.50;6.70;;;9.50;99.90;;;;;;5060764;28;20450;-73
2022/12/25 11:37:15;;;;;;;9.80;7.40;;;9.50;99.90;;;;;;5061375;28;20435;-73
2022/12/25 11:39:42;;;;;;;10.38;7.80;;;9.50;99.90;;;;;;5056039;28;20444;-73
2022/12/25 11:42:14;;;;;;;9.20;7.80;;;9.50;99.90;;;;;;5066312;28;20426;-72
2022/12/25 11:44:46;;;;;;;8.63;7.57;;;9.60;99.90;;;;;;5077120;28;20435;-73
2022/12/25 11:47:19;;;;;;;9.65;7.10;;;9.60;99.90;;;;;;5063809;28;20409;-72
2022/12/25 11:49:50;;;;;;;7.78;6.97;;;9.60;99.90;;;;;;5059851;28;20432;-72
2022/12/25 11:52:19;;;;;;;9.35;6.60;;;9.70;99.90;;;;;;5052898;28;20420;-72
2022/12/25 11:54:51;;;;;;;8.65;6.50;;;9.70;99.90;;;;;;5057430;28;20428;-72
2022/12/25 11:57:18;;;;;;;7.40;6.57;;;9.60;99.90;;;;;;5056243;28;20881;-71
2022/12/25 11:59:52;;;;;;;6.75;5.70;;;9.70;99.90;;;;;;5064322;28;20426;-72
2022/12/25 12:02:30;;;;;;;7.37;6.10;;;9.70;99.90;;;;;;5064131;28;20913;-72
2022/12/25 12:05:08;;;;;;;9.25;6.78;;;9.70;99.90;;;;;;5062454;28;20763;-71
2022/12/25 12:07:44;;;;;;;7.50;6.00;;;9.70;99.90;;;;;;5061457;28;20463;-73
2022/12/25 12:10:17;;;;;;;6.75;6.10;;;9.80;99.90;;;;;;5059453;28;20512;-71
2022/12/25 12:12:50;;;;;;;6.68;5.65;;;9.80;99.90;;;;;;5058917;28;20407;-72
2022/12/25 12:15:27;;;;;;;6.82;5.57;;;9.90;99.90;;;;;;5070193;28;20893;-71
2022/12/25 12:17:54;;;;;;;6.07;5.47;;;9.90;99.90;;;;;;5069735;28;20495;-70
2022/12/25 12:20:29;;;;;;;5.82;5.22;;;10.00;99.90;;;;;;5061008;28;20509;-71
2022/12/25 12:22:59;;;;;;;7.07;5.47;;;9.90;99.90;;;;;;5060840;28;20431;-72
2022/12/25 12:25:26;;;;;;;6.88;5.50;;;10.00;99.90;;;;;;5055725;28;20433;-72
2022/12/25 12:27:55;;;;;;;5.65;5.05;;;10.00;99.90;;;;;;5063638;28;20505;-72
2022/12/25 12:30:26;;;;;;;7.78;6.10;;;10.00;99.90;;;;;;5064551;28;20415;-72
2022/12/25 12:32:54;;;;;;;7.82;6.28;;;10.00;99.90;;;;;;5063878;28;20773;-72
2022/12/25 12:35:25;;;;;;;7.93;5.70;;;10.10;99.90;;;;;;5063306;28;20412;-72
2022/12/25 12:37:55;;;;;;;7.55;5.70;;;10.10;99.90;;;;;;5055467;28;20452;-72
2022/12/25 12:40:31;;;;;;;7.78;6.38;;;10.10;99.90;;;;;;5057162;28;20447;-72
2022/12/25 12:42:58;;;;;;;6.20;5.60;;;10.20;99.90;;;;;;5063732;28;20887;-72
2022/12/25 12:45:28;;;;;;;8.10;5.90;;;10.30;99.90;;;;;;5063865;28;20412;-72
2022/12/25 12:47:56;;;;;;;7.13;5.70;;;10.30;99.90;;;;;;5064082;28;20423;-72
2022/12/25 12:50:35;;;;;;;7.20;6.22;;;10.30;99.90;;;;;;5063182;28;20415;-72
2022/12/25 12:53:23;;;;;;;6.93;5.97;;;10.30;99.90;;;;;;5060910;28;20507;-72
2022/12/25 12:55:52;;;;;;;6.40;5.90;;;10.40;99.90;;;;;;5051436;28;20516;-72
2022/12/25 12:58:29;;;;;;;6.50;5.90;;;10.40;99.90;;;;;;5053068;28;20424;-72
2022/12/25 13:01:07;;;;;;;6.25;5.65;;;10.40;99.90;;;;;;5057458;28;20424;-71
2022/12/25 13:03:45;;;;;;;6.25;5.60;;;10.40;99.90;;;;;;5066953;28;20418;-72
2022/12/25 13:06:17;;;;;;;7.10;6.40;;;10.50;99.90;;;;;;5068202;28;20751;-72
2022/12/25 13:08:57;;;;;;;6.28;5.15;;;10.50;99.90;;;;;;5066238;28;20438;-71
2022/12/25 13:11:29;;;;;;;6.85;5.60;;;10.50;99.90;;;;;;5062922;28;20438;-71
2022/12/25 13:13:59;;;;;;;6.10;5.60;;;10.50;99.90;;;;;;5060058;28;20431;-71
2022/12/25 13:16:29;;;;;;;6.03;5.45;;;10.60;99.90;;;;;;5067313;28;20438;-72
2022/12/25 13:18:57;;;;;;;6.82;6.13;;;10.60;99.90;;;;;;5067242;28;20497;-72
2022/12/25 13:21:26;;;;;;;6.82;5.85;;;10.60;99.90;;;;;;5066781;28;20463;-70
2022/12/25 13:23:58;;;;;;;5.90;5.40;;;10.60;99.90;;;;;;5064028;28;21224;-72
2022/12/25 13:26:27;;;;;;;5.90;5.40;;;10.60;99.90;;;;;;5060766;28;20429;-70
2022/12/25 13:28:54;;;;;;;5.60;5.10;;;10.70;99.90;;;;;;5056763;28;20426;-72
2022/12/25 13:31:23;;;;;;;5.43;4.93;;;10.70;99.90;;;;;;5066474;28;20427;-72
2022/12/25 13:33:56;;;;;;;6.00;5.40;;;10.80;99.90;;;;;;5066101;28;20441;-72
2022/12/25 13:36:23;;;;;;;5.60;5.00;;;10.80;99.90;;;;;;5066716;28;20415;-74
2022/12/25 13:38:52;;;;;;;5.70;5.20;;;10.80;99.90;;;;;;5065082;28;20428;-72
2022/12/25 13:44:16;;;;;;;5.57;5.07;;;10.90;99.90;;;;;;5053467;28;20568;-72
2022/12/25 13:46:43;;;;;;;5.90;5.30;;;10.90;99.90;;;;;;5066322;28;20416;-71
2022/12/25 13:49:14;;;;;;;6.50;5.80;;;10.90;99.90;;;;;;5066188;28;20870;-72
2022/12/25 13:51:41;;;;;;;6.05;5.50;;;10.90;99.90;;;;;;5066374;28;20411;-71
2022/12/25 13:54:11;;;;;;;5.88;5.32;;;10.90;99.90;;;;;;5065045;28;20435;-71
2022/12/25 13:56:45;;;;;;;5.40;5.00;;;10.90;99.90;;;;;;5054719;28;20439;-72
2022/12/25 13:59:17;;;;;;;5.93;5.33;;;10.90;99.90;;;;;;5066643;28;20920;-72
2022/12/25 14:01:44;;;;;;;5.93;5.30;;;10.90;99.90;;;;;;5063461;28;20427;-71
2022/12/25 14:04:15;;;;;;;5.43;5.03;;;11.00;99.90;;;;;;5058899;28;20423;-71
2022/12/25 14:06:42;;;;;;;5.63;5.13;;;11.00;99.90;;;;;;5052698;28;20419;-71
2022/12/25 14:09:11;;;;;;;5.50;5.10;;;11.00;99.90;;;;;;5065243;28;20443;-72
2022/12/25 14:11:39;;;;;;;6.50;5.70;;;11.00;99.90;;;;;;5055967;28;20570;-71
2022/12/25 14:14:14;;;;;;;6.00;5.50;;;11.00;99.90;;;;;;5057686;28;20431;-71
2022/12/25 14:16:43;;;;;;;6.63;5.97;;;11.00;99.90;;;;;;5058786;28;20822;-71
2022/12/25 14:19:23;;;;;;;5.60;5.10;;;10.90;99.90;;;;;;5062730;28;20526;-71
2022/12/25 14:21:55;;;;;;;6.50;5.90;;;11.00;99.90;;;;;;5054503;28;20518;-71
2022/12/25 14:24:23;;;;;;;6.90;6.30;;;11.00;99.90;;;;;;5053858;28;20437;-72
2022/12/25 14:26:58;;;;;;;6.30;5.70;;;11.00;99.90;;;;;;5049211;28;20426;-71
2022/12/25 14:29:26;;;;;;;6.77;6.10;;;11.00;99.90;;;;;;5053103;28;20456;-71
2022/12/25 14:31:57;;;;;;;6.57;5.97;;;11.00;99.90;;;;;;5065750;28;20431;-72
2022/12/25 14:34:25;;;;;;;6.63;6.03;;;11.00;99.90;;;;;;5065742;28;20464;-72
2022/12/25 14:36:53;;;;;;;6.53;5.93;;;11.00;99.90;;;;;;5063968;28;20418;-72
2022/12/25 14:39:29;;;;;;;7.05;6.40;;;11.00;99.90;;;;;;5064549;28;20427;-71
2022/12/25 14:41:56;;;;;;;6.90;6.28;;;11.00;99.90;;;;;;5057313;28;20444;-71
2022/12/25 14:44:36;;;;;;;6.82;6.13;;;11.10;99.90;;;;;;5055069;28;20412;-71
2022/12/25 14:47:14;;;;;;;7.10;6.50;;;11.00;99.90;;;;;;5065712;28;20712;-72
2022/12/25 14:49:41;;;;;;;7.53;6.83;;;11.00;99.90;;;;;;5065409;28;21227;-71
2022/12/25 14:52:15;;;;;;;7.18;6.57;;;11.00;99.90;;;;;;5065586;28;20427;-71
2022/12/25 14:54:49;;;;;;;8.90;7.00;;;11.10;99.90;;;;;;5064085;28;20427;-71